METAR Formatted Surface Weather Observation
Issued by NWS

Home | Current Version | Previous Version | Text Only | Print | Product List | Glossary On
Versions: 1 2 3 4 5 6 7
000
SAUS41 KGYX 232002 COR
MTRNKT
METAR KNKT 231954Z 05015KT 10SM CLR 11/M02 A3057 RMK AO2 SLP348
T01061017



USA.gov is the U.S. government's official web portal to all federal, state and local government web resources and services.